sensor_id;sensor_type;location;lat;lon;timestamp;P1;durP1;ratioP1;P2;durP2;ratioP2
42700;SDS011;28316;49.504;8.526;2023-02-28T00:01:12;4.72;;;0.70;;
42700;SDS011;28316;49.504;8.526;2023-02-28T00:03:40;5.18;;;1.02;;
42700;SDS011;28316;49.504;8.526;2023-02-28T00:06:06;1.48;;;0.55;;
42700;SDS011;28316;49.504;8.526;2023-02-28T00:08:34;1.30;;;1.20;;
42700;SDS011;28316;49.504;8.526;2023-02-28T00:11:08;2.08;;;0.47;;
42700;SDS011;28316;49.504;8.526;2023-02-28T00:13:38;0.88;;;0.50;;
42700;SDS011;28316;49.504;8.526;2023-02-28T00:16:15;0.30;;;0.30;;
42700;SDS011;28316;49.504;8.526;2023-02-28T00:18:44;0.80;;;0.68;;
42700;SDS011;28316;49.504;8.526;2023-02-28T00:21:10;2.17;;;0.80;;
42700;SDS011;28316;49.504;8.526;2023-02-28T00:23:36;1.02;;;0.73;;
42700;SDS011;28316;49.504;8.526;2023-02-28T00:26:02;6.88;;;0.98;;
42700;SDS011;28316;49.504;8.526;2023-02-28T00:28:29;1.30;;;0.93;;
42700;SDS011;28316;49.504;8.526;2023-02-28T00:30:54;0.52;;;0.40;;
42700;SDS011;28316;49.504;8.526;2023-02-28T00:33:22;0.43;;;0.30;;
42700;SDS011;28316;49.504;8.526;2023-02-28T00:35:47;0.32;;;0.32;;
42700;SDS011;28316;49.504;8.526;2023-02-28T00:38:14;0.63;;;0.52;;
42700;SDS011;28316;49.504;8.526;2023-02-28T00:40:41;0.93;;;0.40;;
42700;SDS011;28316;49.504;8.526;2023-02-28T00:43:06;0.60;;;0.60;;
42700;SDS011;28316;49.504;8.526;2023-02-28T00:45:32;0.88;;;0.50;;
42700;SDS011;28316;49.504;8.526;2023-02-28T00:47:58;0.65;;;0.47;;
42700;SDS011;28316;49.504;8.526;2023-02-28T00:50:24;1.55;;;1.08;;
42700;SDS011;28316;49.504;8.526;2023-02-28T00:52:50;1.00;;;0.65;;
42700;SDS011;28316;49.504;8.526;2023-02-28T00:55:15;1.38;;;0.98;;
42700;SDS011;28316;49.504;8.526;2023-02-28T00:57:41;2.92;;;0.88;;
42700;SDS011;28316;49.504;8.526;2023-02-28T01:00:07;3.47;;;1.17;;
42700;SDS011;28316;49.504;8.526;2023-02-28T01:02:34;0.90;;;0.75;;
42700;SDS011;28316;49.504;8.526;2023-02-28T01:05:00;2.28;;;0.65;;
42700;SDS011;28316;49.504;8.526;2023-02-28T01:07:25;0.80;;;0.50;;
42700;SDS011;28316;49.504;8.526;2023-02-28T01:09:51;2.05;;;1.00;;
42700;SDS011;28316;49.504;8.526;2023-02-28T01:12:17;1.20;;;0.95;;
42700;SDS011;28316;49.504;8.526;2023-02-28T01:14:42;0.93;;;0.70;;
42700;SDS011;28316;49.504;8.526;2023-02-28T01:17:08;0.52;;;0.50;;
42700;SDS011;28316;49.504;8.526;2023-02-28T01:19:34;1.75;;;0.80;;
42700;SDS011;28316;49.504;8.526;2023-02-28T01:22:04;0.85;;;0.60;;
42700;SDS011;28316;49.504;8.526;2023-02-28T01:24:31;2.10;;;0.75;;
42700;SDS011;28316;49.504;8.526;2023-02-28T01:26:57;1.40;;;1.13;;
42700;SDS011;28316;49.504;8.526;2023-02-28T01:29:24;0.70;;;0.57;;
42700;SDS011;28316;49.504;8.526;2023-02-28T01:31:49;3.22;;;0.93;;
42700;SDS011;28316;49.504;8.526;2023-02-28T01:34:15;1.95;;;1.10;;
42700;SDS011;28316;49.504;8.526;2023-02-28T01:36:44;2.15;;;1.65;;
42700;SDS011;28316;49.504;8.526;2023-02-28T01:39:10;0.88;;;0.47;;
42700;SDS011;28316;49.504;8.526;2023-02-28T01:41:37;1.90;;;0.85;;
42700;SDS011;28316;49.504;8.526;2023-02-28T01:44:05;1.23;;;1.10;;
42700;SDS011;28316;49.504;8.526;2023-02-28T01:47:10;1.35;;;0.88;;
42700;SDS011;28316;49.504;8.526;2023-02-28T01:49:35;1.98;;;1.50;;
42700;SDS011;28316;49.504;8.526;2023-02-28T01:52:02;1.45;;;0.95;;
42700;SDS011;28316;49.504;8.526;2023-02-28T01:54:31;0.70;;;0.70;;
42700;SDS011;28316;49.504;8.526;2023-02-28T01:57:07;1.58;;;1.23;;
42700;SDS011;28316;49.504;8.526;2023-02-28T02:00:03;2.38;;;0.93;;
42700;SDS011;28316;49.504;8.526;2023-02-28T02:02:29;2.80;;;1.17;;
42700;SDS011;28316;49.504;8.526;2023-02-28T02:05:09;1.98;;;1.08;;
42700;SDS011;28316;49.504;8.526;2023-02-28T02:07:46;1.30;;;0.77;;
42700;SDS011;28316;49.504;8.526;2023-02-28T02:10:21;6.93;;;1.50;;
42700;SDS011;28316;49.504;8.526;2023-02-28T02:16:16;3.35;;;0.85;;
42700;SDS011;28316;49.504;8.526;2023-02-28T02:30:59;0.38;;;0.38;;
42700;SDS011;28316;49.504;8.526;2023-02-28T02:37:08;2.83;;;1.38;;
42700;SDS011;28316;49.504;8.526;2023-02-28T02:42:44;2.28;;;1.08;;
42700;SDS011;28316;49.504;8.526;2023-02-28T02:45:47;1.67;;;1.37;;
42700;SDS011;28316;49.504;8.526;2023-02-28T02:48:25;2.47;;;1.63;;
42700;SDS011;28316;49.504;8.526;2023-02-28T02:50:57;4.20;;;1.25;;
42700;SDS011;28316;49.504;8.526;2023-02-28T02:53:28;1.58;;;1.33;;
42700;SDS011;28316;49.504;8.526;2023-02-28T02:55:59;1.00;;;0.63;;
42700;SDS011;28316;49.504;8.526;2023-02-28T02:58:32;1.33;;;1.05;;
42700;SDS011;28316;49.504;8.526;2023-02-28T03:01:07;0.80;;;0.70;;
42700;SDS011;28316;49.504;8.526;2023-02-28T03:03:40;1.52;;;0.98;;
42700;SDS011;28316;49.504;8.526;2023-02-28T03:06:07;1.52;;;1.05;;
42700;SDS011;28316;49.504;8.526;2023-02-28T03:08:34;0.73;;;0.50;;
42700;SDS011;28316;49.504;8.526;2023-02-28T03:11:04;3.53;;;1.42;;
42700;SDS011;28316;49.504;8.526;2023-02-28T03:20:22;2.85;;;1.48;;
42700;SDS011;28316;49.504;8.526;2023-02-28T03:23:05;2.28;;;1.33;;
42700;SDS011;28316;49.504;8.526;2023-02-28T03:25:47;3.30;;;1.70;;
42700;SDS011;28316;49.504;8.526;2023-02-28T03:28:43;4.93;;;1.45;;
42700;SDS011;28316;49.504;8.526;2023-02-28T03:31:21;2.72;;;1.38;;
42700;SDS011;28316;49.504;8.526;2023-02-28T03:34:08;2.15;;;1.13;;
42700;SDS011;28316;49.504;8.526;2023-02-28T03:37:00;2.03;;;1.10;;
42700;SDS011;28316;49.504;8.526;2023-02-28T03:39:35;4.15;;;1.60;;
42700;SDS011;28316;49.504;8.526;2023-02-28T03:42:08;1.83;;;1.42;;
42700;SDS011;28316;49.504;8.526;2023-02-28T03:44:48;2.67;;;1.30;;
42700;SDS011;28316;49.504;8.526;2023-02-28T03:47:23;0.77;;;0.60;;
42700;SDS011;28316;49.504;8.526;2023-02-28T03:50:01;3.33;;;2.03;;
42700;SDS011;28316;49.504;8.526;2023-02-28T03:52:39;4.57;;;1.13;;
42700;SDS011;28316;49.504;8.526;2023-02-28T03:55:51;2.25;;;1.42;;
42700;SDS011;28316;49.504;8.526;2023-02-28T03:58:37;2.10;;;1.33;;
42700;SDS011;28316;49.504;8.526;2023-02-28T04:01:15;6.25;;;1.85;;
42700;SDS011;28316;49.504;8.526;2023-02-28T04:03:48;3.83;;;2.45;;
42700;SDS011;28316;49.504;8.526;2023-02-28T04:06:19;5.10;;;1.48;;
42700;SDS011;28316;49.504;8.526;2023-02-28T04:08:47;1.65;;;0.80;;
42700;SDS011;28316;49.504;8.526;2023-02-28T04:11:18;2.28;;;1.38;;
42700;SDS011;28316;49.504;8.526;2023-02-28T04:13:47;3.22;;;1.63;;
42700;SDS011;28316;49.504;8.526;2023-02-28T04:16:13;25.17;;;2.03;;
42700;SDS011;28316;49.504;8.526;2023-02-28T04:18:39;1.50;;;1.08;;
42700;SDS011;28316;49.504;8.526;2023-02-28T04:21:05;7.72;;;1.23;;
42700;SDS011;28316;49.504;8.526;2023-02-28T04:23:32;3.92;;;1.48;;
42700;SDS011;28316;49.504;8.526;2023-02-28T04:25:58;3.97;;;2.13;;
42700;SDS011;28316;49.504;8.526;2023-02-28T04:28:24;1.45;;;1.05;;
42700;SDS011;28316;49.504;8.526;2023-02-28T04:30:57;3.45;;;1.77;;
42700;SDS011;28316;49.504;8.526;2023-02-28T04:33:26;2.20;;;1.60;;
42700;SDS011;28316;49.504;8.526;2023-02-28T04:36:02;2.05;;;1.30;;
42700;SDS011;28316;49.504;8.526;2023-02-28T04:38:36;1.50;;;0.97;;
42700;SDS011;28316;49.504;8.526;2023-02-28T04:41:04;3.90;;;1.90;;
42700;SDS011;28316;49.504;8.526;2023-02-28T04:43:30;3.30;;;1.48;;
42700;SDS011;28316;49.504;8.526;2023-02-28T04:45:57;1.08;;;0.77;;
42700;SDS011;28316;49.504;8.526;2023-02-28T04:48:30;2.20;;;1.17;;
42700;SDS011;28316;49.504;8.526;2023-02-28T04:51:00;1.95;;;1.02;;
42700;SDS011;28316;49.504;8.526;2023-02-28T04:53:28;4.32;;;1.10;;
42700;SDS011;28316;49.504;8.526;2023-02-28T04:55:55;1.75;;;1.48;;
42700;SDS011;28316;49.504;8.526;2023-02-28T04:58:22;5.53;;;0.82;;
42700;SDS011;28316;49.504;8.526;2023-02-28T05:00:49;1.88;;;1.13;;
42700;SDS011;28316;49.504;8.526;2023-02-28T05:03:16;2.60;;;1.80;;
42700;SDS011;28316;49.504;8.526;2023-02-28T05:05:41;4.85;;;3.05;;
42700;SDS011;28316;49.504;8.526;2023-02-28T05:08:07;1.13;;;0.95;;
42700;SDS011;28316;49.504;8.526;2023-02-28T05:10:34;2.67;;;1.50;;
42700;SDS011;28316;49.504;8.526;2023-02-28T05:13:01;8.73;;;1.63;;
42700;SDS011;28316;49.504;8.526;2023-02-28T05:15:26;6.93;;;1.45;;
42700;SDS011;28316;49.504;8.526;2023-02-28T05:17:52;0.98;;;0.93;;
42700;SDS011;28316;49.504;8.526;2023-02-28T05:20:18;6.80;;;2.33;;
42700;SDS011;28316;49.504;8.526;2023-02-28T05:22:44;3.47;;;2.38;;
42700;SDS011;28316;49.504;8.526;2023-02-28T05:25:13;1.45;;;0.93;;
42700;SDS011;28316;49.504;8.526;2023-02-28T05:27:44;1.20;;;0.85;;
42700;SDS011;28316;49.504;8.526;2023-02-28T05:30:10;1.88;;;1.33;;
42700;SDS011;28316;49.504;8.526;2023-02-28T05:32:39;1.52;;;1.30;;
42700;SDS011;28316;49.504;8.526;2023-02-28T05:37:37;1.77;;;0.98;;
42700;SDS011;28316;49.504;8.526;2023-02-28T05:40:04;0.88;;;0.65;;
42700;SDS011;28316;49.504;8.526;2023-02-28T05:42:32;2.25;;;1.65;;
42700;SDS011;28316;49.504;8.526;2023-02-28T05:44:58;2.55;;;1.45;;
42700;SDS011;28316;49.504;8.526;2023-02-28T05:47:24;1.95;;;1.38;;
42700;SDS011;28316;49.504;8.526;2023-02-28T05:49:50;2.40;;;2.20;;
42700;SDS011;28316;49.504;8.526;2023-02-28T05:52:16;5.25;;;1.70;;
42700;SDS011;28316;49.504;8.526;2023-02-28T05:54:42;2.53;;;1.60;;
42700;SDS011;28316;49.504;8.526;2023-02-28T05:57:08;3.30;;;1.58;;
42700;SDS011;28316;49.504;8.526;2023-02-28T05:59:34;0.85;;;0.82;;
42700;SDS011;28316;49.504;8.526;2023-02-28T06:01:59;2.30;;;1.25;;
42700;SDS011;28316;49.504;8.526;2023-02-28T06:04:25;4.70;;;1.48;;
42700;SDS011;28316;49.504;8.526;2023-02-28T06:06:54;1.60;;;1.17;;
42700;SDS011;28316;49.504;8.526;2023-02-28T06:09:22;2.40;;;1.10;;
42700;SDS011;28316;49.504;8.526;2023-02-28T06:11:48;5.40;;;1.35;;
42700;SDS011;28316;49.504;8.526;2023-02-28T06:14:14;2.30;;;1.23;;
42700;SDS011;28316;49.504;8.526;2023-02-28T06:16:42;2.80;;;1.67;;
42700;SDS011;28316;49.504;8.526;2023-02-28T06:19:08;2.83;;;1.38;;
42700;SDS011;28316;49.504;8.526;2023-02-28T06:21:34;2.83;;;1.77;;
42700;SDS011;28316;49.504;8.526;2023-02-28T06:24:01;1.95;;;1.33;;
42700;SDS011;28316;49.504;8.526;2023-02-28T06:26:27;5.80;;;2.28;;
42700;SDS011;28316;49.504;8.526;2023-02-28T06:28:53;6.15;;;1.55;;
42700;SDS011;28316;49.504;8.526;2023-02-28T06:31:19;6.55;;;1.42;;
42700;SDS011;28316;49.504;8.526;2023-02-28T06:33:45;2.95;;;1.33;;
42700;SDS011;28316;49.504;8.526;2023-02-28T06:36:12;3.63;;;1.45;;
42700;SDS011;28316;49.504;8.526;2023-02-28T06:38:39;0.75;;;0.68;;
42700;SDS011;28316;49.504;8.526;2023-02-28T06:41:06;1.90;;;1.08;;
42700;SDS011;28316;49.504;8.526;2023-02-28T06:43:35;3.45;;;2.28;;
42700;SDS011;28316;49.504;8.526;2023-02-28T06:46:06;0.95;;;0.75;;
42700;SDS011;28316;49.504;8.526;2023-02-28T06:48:35;4.95;;;2.05;;
42700;SDS011;28316;49.504;8.526;2023-02-28T06:51:05;2.28;;;1.63;;
42700;SDS011;28316;49.504;8.526;2023-02-28T06:53:47;3.72;;;1.67;;
42700;SDS011;28316;49.504;8.526;2023-02-28T06:56:14;2.35;;;1.30;;
42700;SDS011;28316;49.504;8.526;2023-02-28T06:58:41;2.97;;;1.67;;
42700;SDS011;28316;49.504;8.526;2023-02-28T07:01:13;6.70;;;1.67;;
42700;SDS011;28316;49.504;8.526;2023-02-28T07:03:39;3.78;;;2.05;;
42700;SDS011;28316;49.504;8.526;2023-02-28T07:06:05;5.22;;;2.88;;
42700;SDS011;28316;49.504;8.526;2023-02-28T07:08:31;4.93;;;2.50;;
42700;SDS011;28316;49.504;8.526;2023-02-28T07:10:59;3.63;;;2.38;;
42700;SDS011;28316;49.504;8.526;2023-02-28T07:13:25;17.63;;;5.38;;
42700;SDS011;28316;49.504;8.526;2023-02-28T07:16:04;5.13;;;2.75;;
42700;SDS011;28316;49.504;8.526;2023-02-28T07:18:33;3.33;;;1.92;;
42700;SDS011;28316;49.504;8.526;2023-02-28T07:21:04;4.10;;;2.30;;
42700;SDS011;28316;49.504;8.526;2023-02-28T07:23:32;4.65;;;1.55;;
42700;SDS011;28316;49.504;8.526;2023-02-28T07:25:58;3.25;;;1.70;;
42700;SDS011;28316;49.504;8.526;2023-02-28T07:28:25;3.53;;;1.88;;
42700;SDS011;28316;49.504;8.526;2023-02-28T07:30:51;6.15;;;2.58;;
42700;SDS011;28316;49.504;8.526;2023-02-28T07:33:17;5.03;;;2.05;;
42700;SDS011;28316;49.504;8.526;2023-02-28T07:35:42;3.40;;;2.10;;
42700;SDS011;28316;49.504;8.526;2023-02-28T07:38:08;3.20;;;1.73;;
42700;SDS011;28316;49.504;8.526;2023-02-28T07:40:35;2.30;;;1.50;;
42700;SDS011;28316;49.504;8.526;2023-02-28T07:43:02;2.25;;;1.20;;
42700;SDS011;28316;49.504;8.526;2023-02-28T07:45:28;3.33;;;2.55;;
42700;SDS011;28316;49.504;8.526;2023-02-28T07:47:56;4.75;;;1.85;;
42700;SDS011;28316;49.504;8.526;2023-02-28T07:50:22;13.55;;;3.80;;
42700;SDS011;28316;49.504;8.526;2023-02-28T07:52:48;8.20;;;2.03;;
42700;SDS011;28316;49.504;8.526;2023-02-28T07:55:14;3.65;;;2.75;;
42700;SDS011;28316;49.504;8.526;2023-02-28T07:57:41;3.63;;;1.33;;
42700;SDS011;28316;49.504;8.526;2023-02-28T08:00:08;8.15;;;2.72;;
42700;SDS011;28316;49.504;8.526;2023-02-28T08:02:36;9.32;;;2.05;;
42700;SDS011;28316;49.504;8.526;2023-02-28T08:05:02;3.03;;;1.30;;
42700;SDS011;28316;49.504;8.526;2023-02-28T08:07:28;3.58;;;1.88;;
42700;SDS011;28316;49.504;8.526;2023-02-28T08:09:54;2.70;;;1.80;;
42700;SDS011;28316;49.504;8.526;2023-02-28T08:12:19;14.13;;;2.03;;
42700;SDS011;28316;49.504;8.526;2023-02-28T08:14:45;6.18;;;1.70;;
42700;SDS011;28316;49.504;8.526;2023-02-28T08:17:11;3.80;;;1.52;;
42700;SDS011;28316;49.504;8.526;2023-02-28T08:19:37;8.20;;;2.13;;
42700;SDS011;28316;49.504;8.526;2023-02-28T08:22:03;2.10;;;1.63;;
42700;SDS011;28316;49.504;8.526;2023-02-28T08:24:29;3.95;;;1.17;;
42700;SDS011;28316;49.504;8.526;2023-02-28T08:26:55;5.43;;;2.80;;
42700;SDS011;28316;49.504;8.526;2023-02-28T08:29:21;2.55;;;1.85;;
42700;SDS011;28316;49.504;8.526;2023-02-28T08:31:47;9.05;;;2.08;;
42700;SDS011;28316;49.504;8.526;2023-02-28T08:34:14;7.25;;;2.42;;
42700;SDS011;28316;49.504;8.526;2023-02-28T08:36:41;5.00;;;1.65;;
42700;SDS011;28316;49.504;8.526;2023-02-28T08:39:09;1.85;;;1.60;;
42700;SDS011;28316;49.504;8.526;2023-02-28T08:41:35;2.30;;;1.60;;
42700;SDS011;28316;49.504;8.526;2023-02-28T08:44:02;7.20;;;1.95;;
42700;SDS011;28316;49.504;8.526;2023-02-28T08:46:28;2.33;;;1.40;;
42700;SDS011;28316;49.504;8.526;2023-02-28T08:48:54;4.53;;;2.67;;
42700;SDS011;28316;49.504;8.526;2023-02-28T08:51:25;2.20;;;1.35;;
42700;SDS011;28316;49.504;8.526;2023-02-28T08:54:00;6.57;;;2.80;;
42700;SDS011;28316;49.504;8.526;2023-02-28T08:56:27;6.18;;;2.95;;
42700;SDS011;28316;49.504;8.526;2023-02-28T08:58:54;5.82;;;2.25;;
42700;SDS011;28316;49.504;8.526;2023-02-28T09:01:22;4.32;;;1.65;;
42700;SDS011;28316;49.504;8.526;2023-02-28T09:03:53;5.75;;;3.03;;
42700;SDS011;28316;49.504;8.526;2023-02-28T09:06:21;2.80;;;1.70;;
42700;SDS011;28316;49.504;8.526;2023-02-28T09:08:50;5.25;;;2.83;;
42700;SDS011;28316;49.504;8.526;2023-02-28T09:11:16;2.75;;;1.95;;
42700;SDS011;28316;49.504;8.526;2023-02-28T09:13:43;11.38;;;2.75;;
42700;SDS011;28316;49.504;8.526;2023-02-28T09:16:11;7.63;;;3.05;;
42700;SDS011;28316;49.504;8.526;2023-02-28T09:18:41;24.00;;;3.22;;
42700;SDS011;28316;49.504;8.526;2023-02-28T09:21:08;6.32;;;2.58;;
42700;SDS011;28316;49.504;8.526;2023-02-28T09:23:39;6.78;;;2.15;;
42700;SDS011;28316;49.504;8.526;2023-02-28T09:26:16;4.07;;;2.33;;
42700;SDS011;28316;49.504;8.526;2023-02-28T09:28:47;3.92;;;1.25;;
42700;SDS011;28316;49.504;8.526;2023-02-28T09:31:14;5.28;;;2.63;;
42700;SDS011;28316;49.504;8.526;2023-02-28T09:33:46;1.70;;;1.42;;
42700;SDS011;28316;49.504;8.526;2023-02-28T09:36:17;17.25;;;3.60;;
42700;SDS011;28316;49.504;8.526;2023-02-28T09:38:43;7.50;;;2.33;;
42700;SDS011;28316;49.504;8.526;2023-02-28T09:41:13;3.70;;;2.45;;
42700;SDS011;28316;49.504;8.526;2023-02-28T09:43:56;3.53;;;1.50;;
42700;SDS011;28316;49.504;8.526;2023-02-28T09:49:06;6.78;;;3.33;;
42700;SDS011;28316;49.504;8.526;2023-02-28T09:54:30;3.13;;;2.35;;
42700;SDS011;28316;49.504;8.526;2023-02-28T09:59:44;4.75;;;2.05;;
42700;SDS011;28316;49.504;8.526;2023-02-28T10:08:19;4.82;;;1.98;;
42700;SDS011;28316;49.504;8.526;2023-02-28T10:10:57;2.30;;;1.63;;
42700;SDS011;28316;49.504;8.526;2023-02-28T10:19:05;3.28;;;1.83;;
42700;SDS011;28316;49.504;8.526;2023-02-28T10:21:57;10.55;;;2.47;;
42700;SDS011;28316;49.504;8.526;2023-02-28T10:24:37;5.50;;;2.60;;
42700;SDS011;28316;49.504;8.526;2023-02-28T10:27:19;3.50;;;2.25;;
42700;SDS011;28316;49.504;8.526;2023-02-28T10:29:51;3.35;;;2.10;;
42700;SDS011;28316;49.504;8.526;2023-02-28T10:32:27;8.48;;;2.85;;
42700;SDS011;28316;49.504;8.526;2023-02-28T10:37:45;6.53;;;1.83;;
42700;SDS011;28316;49.504;8.526;2023-02-28T10:42:42;7.30;;;2.78;;
42700;SDS011;28316;49.504;8.526;2023-02-28T10:45:31;5.45;;;2.60;;
42700;SDS011;28316;49.504;8.526;2023-02-28T10:48:01;6.15;;;2.60;;
42700;SDS011;28316;49.504;8.526;2023-02-28T10:56:05;9.27;;;2.50;;
42700;SDS011;28316;49.504;8.526;2023-02-28T10:58:48;5.03;;;2.03;;
42700;SDS011;28316;49.504;8.526;2023-02-28T11:01:22;4.32;;;2.13;;
42700;SDS011;28316;49.504;8.526;2023-02-28T11:04:00;4.68;;;2.22;;
42700;SDS011;28316;49.504;8.526;2023-02-28T11:09:14;5.50;;;2.72;;
42700;SDS011;28316;49.504;8.526;2023-02-28T11:11:55;10.90;;;4.07;;
42700;SDS011;28316;49.504;8.526;2023-02-28T11:16:57;4.47;;;2.15;;
42700;SDS011;28316;49.504;8.526;2023-02-28T11:19:50;4.95;;;2.58;;
42700;SDS011;28316;49.504;8.526;2023-02-28T11:22:23;5.53;;;2.60;;
42700;SDS011;28316;49.504;8.526;2023-02-28T11:24:59;7.05;;;2.40;;
42700;SDS011;28316;49.504;8.526;2023-02-28T11:29:59;6.45;;;2.35;;
42700;SDS011;28316;49.504;8.526;2023-02-28T11:32:26;5.07;;;2.30;;
42700;SDS011;28316;49.504;8.526;2023-02-28T11:37:59;5.30;;;2.20;;
42700;SDS011;28316;49.504;8.526;2023-02-28T11:43:26;3.97;;;2.35;;
42700;SDS011;28316;49.504;8.526;2023-02-28T11:55:14;4.45;;;2.13;;
42700;SDS011;28316;49.504;8.526;2023-02-28T12:09:38;4.38;;;2.00;;
42700;SDS011;28316;49.504;8.526;2023-02-28T12:12:38;3.20;;;1.90;;
42700;SDS011;28316;49.504;8.526;2023-02-28T12:29:23;4.20;;;2.58;;
42700;SDS011;28316;49.504;8.526;2023-02-28T12:32:12;5.20;;;2.63;;
42700;SDS011;28316;49.504;8.526;2023-02-28T12:35:13;3.35;;;2.20;;
42700;SDS011;28316;49.504;8.526;2023-02-28T12:37:46;6.55;;;2.45;;
42700;SDS011;28316;49.504;8.526;2023-02-28T12:41:00;3.22;;;2.05;;
42700;SDS011;28316;49.504;8.526;2023-02-28T12:43:54;4.43;;;2.40;;
42700;SDS011;28316;49.504;8.526;2023-02-28T12:46:36;3.78;;;2.22;;
42700;SDS011;28316;49.504;8.526;2023-02-28T12:50:11;7.32;;;2.95;;
42700;SDS011;28316;49.504;8.526;2023-02-28T12:55:39;5.38;;;2.50;;
42700;SDS011;28316;49.504;8.526;2023-02-28T12:58:41;4.15;;;2.20;;
42700;SDS011;28316;49.504;8.526;2023-02-28T13:14:00;5.03;;;2.45;;
42700;SDS011;28316;49.504;8.526;2023-02-28T13:17:17;5.97;;;2.30;;
42700;SDS011;28316;49.504;8.526;2023-02-28T13:24:57;5.22;;;2.63;;
42700;SDS011;28316;49.504;8.526;2023-02-28T13:27:24;5.22;;;3.10;;
42700;SDS011;28316;49.504;8.526;2023-02-28T13:30:00;5.50;;;2.60;;
42700;SDS011;28316;49.504;8.526;2023-02-28T13:32:34;4.60;;;2.65;;
42700;SDS011;28316;49.504;8.526;2023-02-28T13:37:32;7.68;;;3.28;;
42700;SDS011;28316;49.504;8.526;2023-02-28T13:43:02;10.75;;;3.03;;
42700;SDS011;28316;49.504;8.526;2023-02-28T13:45:30;4.72;;;2.63;;
42700;SDS011;28316;49.504;8.526;2023-02-28T13:48:03;4.43;;;2.30;;
42700;SDS011;28316;49.504;8.526;2023-02-28T13:50:41;6.22;;;2.88;;
42700;SDS011;28316;49.504;8.526;2023-02-28T14:06:55;5.32;;;2.42;;
42700;SDS011;28316;49.504;8.526;2023-02-28T14:11:53;5.30;;;3.05;;
42700;SDS011;28316;49.504;8.526;2023-02-28T14:15:02;5.60;;;2.78;;
42700;SDS011;28316;49.504;8.526;2023-02-28T14:17:12;10.23;;;2.97;;
42700;SDS011;28316;49.504;8.526;2023-02-28T14:19:43;6.13;;;3.03;;
42700;SDS011;28316;49.504;8.526;2023-02-28T14:25:23;7.05;;;3.38;;
42700;SDS011;28316;49.504;8.526;2023-02-28T14:28:19;5.85;;;2.42;;
42700;SDS011;28316;49.504;8.526;2023-02-28T14:33:44;7.20;;;3.53;;
42700;SDS011;28316;49.504;8.526;2023-02-28T14:36:32;5.82;;;2.45;;
42700;SDS011;28316;49.504;8.526;2023-02-28T14:39:06;5.38;;;2.65;;
42700;SDS011;28316;49.504;8.526;2023-02-28T14:41:39;6.20;;;2.63;;
42700;SDS011;28316;49.504;8.526;2023-02-28T14:46:49;5.83;;;2.80;;
42700;SDS011;28316;49.504;8.526;2023-02-28T14:52:12;5.10;;;2.30;;
42700;SDS011;28316;49.504;8.526;2023-02-28T14:54:54;5.18;;;2.55;;
42700;SDS011;28316;49.504;8.526;2023-02-28T14:57:24;5.57;;;2.67;;
42700;SDS011;28316;49.504;8.526;2023-02-28T15:00:16;3.40;;;2.25;;
42700;SDS011;28316;49.504;8.526;2023-02-28T15:02:50;8.23;;;3.08;;
42700;SDS011;28316;49.504;8.526;2023-02-28T15:05:31;3.45;;;2.10;;
42700;SDS011;28316;49.504;8.526;2023-02-28T15:08:04;10.10;;;3.33;;
42700;SDS011;28316;49.504;8.526;2023-02-28T15:10:43;4.63;;;2.92;;
42700;SDS011;28316;49.504;8.526;2023-02-28T15:13:18;9.48;;;2.60;;
42700;SDS011;28316;49.504;8.526;2023-02-28T15:15:47;5.95;;;2.83;;
42700;SDS011;28316;49.504;8.526;2023-02-28T15:21:21;7.35;;;3.45;;
42700;SDS011;28316;49.504;8.526;2023-02-28T15:24:19;10.88;;;3.42;;
42700;SDS011;28316;49.504;8.526;2023-02-28T15:27:12;6.80;;;3.35;;
42700;SDS011;28316;49.504;8.526;2023-02-28T15:29:56;5.95;;;2.88;;
42700;SDS011;28316;49.504;8.526;2023-02-28T15:32:31;6.47;;;2.67;;
42700;SDS011;28316;49.504;8.526;2023-02-28T15:35:45;5.88;;;3.17;;
42700;SDS011;28316;49.504;8.526;2023-02-28T15:37:53;4.90;;;2.78;;
42700;SDS011;28316;49.504;8.526;2023-02-28T15:40:30;7.10;;;3.22;;
42700;SDS011;28316;49.504;8.526;2023-02-28T15:43:17;8.15;;;3.15;;
42700;SDS011;28316;49.504;8.526;2023-02-28T15:48:51;4.30;;;2.40;;
42700;SDS011;28316;49.504;8.526;2023-02-28T15:51:20;5.07;;;2.90;;
42700;SDS011;28316;49.504;8.526;2023-02-28T15:53:56;4.35;;;2.42;;
42700;SDS011;28316;49.504;8.526;2023-02-28T15:56:55;5.60;;;2.95;;
42700;SDS011;28316;49.504;8.526;2023-02-28T15:59:23;6.32;;;3.08;;
42700;SDS011;28316;49.504;8.526;2023-02-28T16:04:58;7.70;;;3.08;;
42700;SDS011;28316;49.504;8.526;2023-02-28T16:07:28;8.85;;;3.83;;
42700;SDS011;28316;49.504;8.526;2023-02-28T16:09:54;5.38;;;2.55;;
42700;SDS011;28316;49.504;8.526;2023-02-28T16:12:21;9.80;;;3.20;;
42700;SDS011;28316;49.504;8.526;2023-02-28T16:14:52;5.28;;;2.58;;
42700;SDS011;28316;49.504;8.526;2023-02-28T16:17:20;6.80;;;3.20;;
42700;SDS011;28316;49.504;8.526;2023-02-28T16:19:58;9.27;;;2.90;;
42700;SDS011;28316;49.504;8.526;2023-02-28T16:22:25;4.90;;;2.65;;
42700;SDS011;28316;49.504;8.526;2023-02-28T16:24:51;6.80;;;2.80;;
42700;SDS011;28316;49.504;8.526;2023-02-28T16:30:05;9.75;;;3.33;;
42700;SDS011;28316;49.504;8.526;2023-02-28T16:32:34;5.90;;;2.63;;
42700;SDS011;28316;49.504;8.526;2023-02-28T16:35:01;12.38;;;4.72;;
42700;SDS011;28316;49.504;8.526;2023-02-28T16:37:27;9.63;;;3.45;;
42700;SDS011;28316;49.504;8.526;2023-02-28T16:39:53;3.95;;;2.30;;
42700;SDS011;28316;49.504;8.526;2023-02-28T16:42:23;6.75;;;3.03;;
42700;SDS011;28316;49.504;8.526;2023-02-28T16:44:53;8.02;;;3.83;;
42700;SDS011;28316;49.504;8.526;2023-02-28T16:47:20;6.72;;;2.85;;
42700;SDS011;28316;49.504;8.526;2023-02-28T16:49:47;7.82;;;3.65;;
42700;SDS011;28316;49.504;8.526;2023-02-28T16:52:13;4.53;;;2.42;;
42700;SDS011;28316;49.504;8.526;2023-02-28T16:54:40;7.65;;;3.40;;
42700;SDS011;28316;49.504;8.526;2023-02-28T16:57:07;6.18;;;3.28;;
42700;SDS011;28316;49.504;8.526;2023-02-28T16:59:46;5.60;;;3.00;;
42700;SDS011;28316;49.504;8.526;2023-02-28T17:02:14;7.05;;;3.35;;
42700;SDS011;28316;49.504;8.526;2023-02-28T17:04:41;4.57;;;2.63;;
42700;SDS011;28316;49.504;8.526;2023-02-28T17:07:10;5.82;;;2.70;;
42700;SDS011;28316;49.504;8.526;2023-02-28T17:09:38;5.32;;;2.53;;
42700;SDS011;28316;49.504;8.526;2023-02-28T17:12:05;7.05;;;3.55;;
42700;SDS011;28316;49.504;8.526;2023-02-28T17:14:32;7.53;;;2.92;;
42700;SDS011;28316;49.504;8.526;2023-02-28T17:16:57;11.25;;;3.53;;
42700;SDS011;28316;49.504;8.526;2023-02-28T17:19:23;6.15;;;3.28;;
42700;SDS011;28316;49.504;8.526;2023-02-28T17:21:49;8.65;;;3.83;;
42700;SDS011;28316;49.504;8.526;2023-02-28T17:24:15;8.52;;;3.67;;
42700;SDS011;28316;49.504;8.526;2023-02-28T17:26:41;7.72;;;3.38;;
42700;SDS011;28316;49.504;8.526;2023-02-28T17:29:12;3.80;;;2.53;;
42700;SDS011;28316;49.504;8.526;2023-02-28T17:31:45;4.68;;;2.63;;
42700;SDS011;28316;49.504;8.526;2023-02-28T17:34:12;8.90;;;3.78;;
42700;SDS011;28316;49.504;8.526;2023-02-28T17:36:43;4.85;;;3.10;;
42700;SDS011;28316;49.504;8.526;2023-02-28T17:39:11;4.15;;;2.60;;
42700;SDS011;28316;49.504;8.526;2023-02-28T17:41:46;8.25;;;2.83;;
42700;SDS011;28316;49.504;8.526;2023-02-28T17:44:12;6.20;;;2.92;;
42700;SDS011;28316;49.504;8.526;2023-02-28T17:46:44;10.38;;;4.97;;
42700;SDS011;28316;49.504;8.526;2023-02-28T17:49:11;8.07;;;4.22;;
42700;SDS011;28316;49.504;8.526;2023-02-28T17:51:37;7.70;;;3.08;;
42700;SDS011;28316;49.504;8.526;2023-02-28T17:54:03;8.45;;;4.07;;
42700;SDS011;28316;49.504;8.526;2023-02-28T17:56:30;7.55;;;2.55;;
42700;SDS011;28316;49.504;8.526;2023-02-28T17:58:56;5.10;;;3.10;;
42700;SDS011;28316;49.504;8.526;2023-02-28T18:01:22;7.10;;;2.50;;
42700;SDS011;28316;49.504;8.526;2023-02-28T18:03:52;6.47;;;3.45;;
42700;SDS011;28316;49.504;8.526;2023-02-28T18:06:20;7.13;;;3.10;;
42700;SDS011;28316;49.504;8.526;2023-02-28T18:08:52;6.28;;;3.22;;
42700;SDS011;28316;49.504;8.526;2023-02-28T18:11:19;9.07;;;3.42;;